x

Gooses Reef, Md (44062) Weather Station

7:20pm - Thu 25th Dec 2014 All times are EST. -5 hours from GMT.

  • Wind
    4mph, 9mph gusts
  • Air Temp 44°f
  • Sea Pressure 1019.5mb
  • Gooses Reef, Md
  • Gooses Reef, Md

More Historic Weather Station data

Upgrade to MSW Pro to gain access to the past 30 days of data for over 8000 Wavebouys and Weather Stations around the globe.

Join Pro

Comparision Forecast

View Surf forecast
   
Thu 12/25 7:20pm  -   -  4 9 mph 1019.5mb 44f
7:10pm  -   -  4
mph
1019.2mb 45f
7:00pm 0.7ft  -  4 7 mph 1019.2mb 45f
6:50pm  -   -  2 7 mph 1019mb 45f
6:40pm  -   -  2 4 mph 1019mb 45f
6:30pm  -   -  7
mph
1018.8mb 46f
6:20pm  -   -  7
mph
1018.7mb 46f
6:10pm  -   -  7 9 mph 1018.4mb 47f
6:00pm 0.7ft  -  7 9 mph 1018.4mb 47f
5:50pm  -   -  4 7 mph 1018.3mb 46f
5:40pm  -   -  4 9 mph 1018mb 46f
5:30pm  -   -  7 9 mph 1018.1mb 47f
5:20pm  -   -  7 9 mph 1017.9mb 47f
5:10pm  -   -  7
mph
1017.8mb 47f
5:00pm 1ft 2s 7 9 mph 1017.6mb 47f
4:50pm  -   -  9
mph
1017.4mb 48f
4:40pm  -   -  9 11 mph 1017.4mb 49f
4:30pm  -   -  13 16 mph 1017.2mb 50f
4:20pm  -   -  13 20 mph 1017.1mb 49f
4:10pm  -   -  13 16 mph 1016.7mb 50f
4:00pm 1.3ft 2s 13 16 mph 1016.6mb 50f
3:50pm  -   -  11 13 mph 1016.5mb 50f
3:40pm  -   -  13 18 mph 1016.2mb 50f
3:30pm  -   -  13 16 mph 1016.1mb 50f
3:20pm  -   -  9 13 mph 1016mb 50f
3:10pm  -   -  11 16 mph 1015.5mb 50f
3:00pm 1.6ft 3s 13 20 mph 1015.4mb 50f
2:50pm  -   -  13 16 mph 1015.3mb 50f
2:40pm  -   -  16 20 mph 1015mb 50f
2:30pm  -   -  13 22 mph 1014.8mb 50f
2:20pm  -   -  11 18 mph 1014.7mb 50f
2:10pm  -   -  16 20 mph 1014.4mb 50f
2:00pm 1.6ft 2s 13 18 mph 1014.4mb 50f
1:50pm  -   -  16 20 mph 1014.3mb 50f
1:40pm  -   -  13 18 mph 1014.2mb 49f
1:30pm  -   -  13 18 mph 1014.2mb 50f
1:20pm  -   -  20 27 mph 1013.8mb 50f
1:10pm  -   -  16 25 mph 1013.8mb 50f
1:00pm 2ft 3s 16 18 mph 1013.5mb 49f
12:50pm  -   -  18 22 mph 1013.5mb 50f
12:40pm  -   -  20 27 mph 1013.4mb 50f
12:30pm  -   -  20 25 mph 1013.4mb 51f
12:20pm  -   -  22 27 mph 1013.4mb 50f
12:10pm  -   -  20 25 mph 1013.3mb 50f
12:00pm 2.5ft 3s 18 22 mph 1013.2mb 50f
11:50am  -   -  20 29 mph 1013.1mb 51f
11:40am  -   -  20 27 mph 1013mb 51f
11:30am  -   -  18 25 mph 1012.9mb 50f
11:20am  -   -  22 31 mph 1013mb 51f
11:10am  -   -  25 34 mph 1012.8mb 51f
11:00am 2ft 3s 20 31 mph 1012.5mb 51f
10:50am  -   -  18 27 mph 1012.3mb 50f
10:40am  -   -  20 25 mph 1012.1mb 50f
10:30am  -   -  18 25 mph 1011.8mb 50f
10:20am  -   -  20 27 mph 1011.6mb 50f
10:10am  -   -  18 27 mph 1011.4mb 50f
10:00am 1.6ft 2s 18 22 mph 1011.3mb 49f
9:50am  -   -  13 18 mph 1011.2mb 49f
9:40am  -   -  13 18 mph 1010.9mb 49f
9:30am  -   -  13 20 mph 1010.7mb 48f
9:20am  -   -  11 16 mph 1010.4mb 47f
9:10am  -   -  13 18 mph 1010mb 47f
9:00am 1.3ft 2s 13 16 mph 1009.6mb 47f
8:50am  -   -  13 16 mph 1009.2mb 47f
8:40am  -   -  13 18 mph 1008.7mb 47f
8:30am  -   -  13 18 mph 1008.6mb 47f
8:20am  -   -  13 18 mph 1008.4mb 47f
8:10am  -   -  13 18 mph 1008.3mb 48f
8:00am 1ft 2s 13 20 mph 1008.1mb 48f
7:50am  -   -  13 18 mph 1007.7mb 48f
7:40am  -   -  13 18 mph 1007.9mb 48f
7:30am  -   -  9 13 mph 1007.5mb 47f
7:20am  -   -  9 11 mph 1007.1mb 47f
7:10am  -   -  11
mph
1006.8mb 47f
7:00am 1ft 2s 11 13 mph 1006.4mb 47f
6:50am  -   -  11 13 mph 1006.1mb 46f
6:40am  -   -  11 13 mph 1005.8mb 46f
6:30am  -   -  9 11 mph 1005.1mb 47f
6:20am  -   -  9 11 mph 1004.7mb 47f
6:10am  -   -  9 13 mph 1004.8mb 47f
6:00am 1ft 2s 11 13 mph 1004.9mb 47f
5:50am  -   -  16 18 mph 1004.6mb 48f
5:40am  -   -  16 18 mph 1004.9mb 49f
5:30am  -   -  16 20 mph 1004.2mb 48f
5:20am  -   -  13 18 mph 1003.5mb 47f
5:10am  -   -  9 13 mph 1002.9mb 48f
5:00am 0.7ft  -  11 13 mph 1002.5mb 49f
4:50am  -   -  11 13 mph 1002.4mb 50f
4:40am  -   -  2 11 mph 1002.7mb 51f
4:30am  -   -  4
mph
1002.9mb 51f
4:20am  -   -  4 7 mph 1002.9mb 51f
4:10am  -   -  7 9 mph 1003.1mb 52f
4:00am 1.3ft 2s 9 11 mph 1003.3mb 53f
3:50am  -   -  13 16 mph 1003.5mb 54f
3:40am  -   -  18 25 mph 1003mb 55f
3:30am  -   -  18 25 mph 1003mb 55f
3:20am  -   -  16 20 mph 1002.7mb 55f
3:10am  -   -  16 20 mph 1002.2mb 55f
3:00am 1ft 2s 16 18 mph 1002.3mb 55f
2:50am  -   -  13 18 mph 1001.8mb 55f
2:40am  -   -  13 16 mph 1001.6mb 55f
2:30am  -   -  13 16 mph 1001.9mb 55f
2:20am  -   -  11 16 mph 1001.9mb 54f
2:10am  -   -  11
mph
1001.8mb 53f
2:00am 1ft 2s 9 11 mph 1001.5mb 53f
1:50am  -   -  11
mph
1001.4mb 53f
1:40am  -   -  11
mph
1001.5mb 53f
1:30am  -   -  11 16 mph 1001.5mb 54f
1:20am  -   -  13 16 mph 1001.3mb 53f
1:10am  -   -  13 16 mph 1001.1mb 54f
1:00am 1ft 3s 13 16 mph 1000.9mb 54f
12:50am  -   -  11 13 mph 1000.8mb 53f
12:40am  -   -  11 13 mph 1000.8mb 53f
12:30am  -   -  11 13 mph 1000.7mb 49f
12:20am  -   -  9 11 mph 1000.5mb 47f
12:10am  -   -  11 13 mph 1000.5mb 47f
12:00am 1ft 3s 11 13 mph 1000.5mb 47f
Wed 12/24 11:50pm  -   -  11 13 mph 1000.5mb 47f
11:40pm  -   -  11 13 mph 1000.4mb 46f
11:30pm  -   -  11 13 mph 1000.6mb 46f
11:20pm  -   -  11 13 mph 1000.7mb 46f
11:10pm  -   -  11 13 mph 1000.6mb 46f
11:00pm 1.3ft 3s 11 13 mph 1000.6mb 46f
10:50pm  -   -  13 16 mph 1000.4mb 46f
10:40pm  -   -  13 16 mph 1000.5mb 46f
10:30pm  -   -  13 16 mph 1000.4mb 46f
10:20pm  -   -  13 16 mph 1000.6mb 46f
10:10pm  -   -  13 16 mph 1000.6mb 46f
10:00pm 1ft 3s 13 16 mph 1000.6mb 46f
9:50pm  -   -  13 16 mph 1000.8mb 46f
9:40pm  -   -  16 20 mph 1000.7mb 46f
9:30pm  -   -  16 18 mph 1000.8mb 46f
9:20pm  -   -  13 16 mph 1001mb 46f
9:10pm  -   -  11 13 mph 1001.5mb 46f
9:00pm 0.7ft  -  13 16 mph 1001.6mb 46f
8:50pm  -   -  16 18 mph 1001.5mb 47f
8:40pm  -   -  13 16 mph 1001.4mb 48f
8:30pm  -   -  11 13 mph 1001.5mb 47f
8:20pm  -   -  7 9 mph 1001.8mb 46f
8:10pm  -   -  7 9 mph 1002mb 46f
8:00pm 0.3ft  -  7 9 mph 1002.3mb 46f
7:50pm  -   -  7 11 mph 1002.2mb 46f
7:40pm  -   -  11 13 mph 1001.8mb 45f
7:30pm  -   -  9
mph
1002.4mb 45f
7:20pm  -   -  7
mph
1003.2mb 45f
7:10pm  -   -  7 9 mph 1003.1mb 45f
7:00pm 0.3ft  -  7
mph
1003.2mb 45f
6:50pm  -   -  7 9 mph 1003.5mb 45f
6:40pm  -   -  9
mph
1002.9mb 45f
6:30pm  -   -  7 9 mph 1002.6mb 45f
6:20pm  -   -  7
mph
1002.5mb 45f
6:10pm  -   -  7
mph
1002.6mb 47f
6:00pm 0.7ft  -  7 9 mph 1003mb 48f
5:50pm  -   -  7 9 mph 1003.1mb 47f
5:40pm  -   -  4 7 mph 1003.1mb 48f
5:30pm  -   -  9 13 mph 1002.1mb 49f
5:20pm  -   -  9 11 mph 1002.3mb 51f
5:10pm  -   -  11 13 mph 1002.8mb 52f
5:00pm 0.7ft  -  11 13 mph 1003mb 52f
4:50pm  -   -  11 13 mph 1003.2mb 52f
4:40pm  -   -  11 13 mph 1003.4mb 53f
4:30pm  -   -  11 13 mph 1003.7mb 53f
4:20pm  -   -  11
mph
1003.7mb 53f
4:10pm  -   -  11
mph
1003.8mb 54f
4:00pm 1ft 2s 9 13 mph 1004mb 54f
3:50pm  -   -  9 11 mph 1004mb 53f
3:40pm  -   -  9 13 mph 1004.1mb 53f
3:30pm  -   -  7 11 mph 1004.2mb 51f
3:20pm  -   -  7 9 mph 1004mb 50f
3:10pm  -   -  7 9 mph 1004mb 48f
3:00pm 1ft 2s 7 9 mph 1003.9mb 47f
2:50pm  -   -  9
mph
1004mb 47f
2:40pm  -   -  11
mph
1003.7mb 47f
2:30pm  -   -  11 13 mph 1003.8mb 47f
2:20pm  -   -  13 16 mph 1003.8mb 48f
2:10pm  -   -  13 16 mph 1003.8mb 48f
2:00pm 1ft 2s 16 18 mph 1003.8mb 48f
1:50pm  -   -  13 18 mph 1003.6mb 47f
1:40pm  -   -  13 16 mph 1003.7mb 47f
1:30pm  -   -  13 16 mph 1003.9mb 47f
1:20pm  -   -  13
mph
1004.1mb 48f
1:10pm  -   -  13 18 mph 1004.1mb 47f
1:00pm 1ft 2s 11 13 mph 1004.5mb 47f
12:50pm  -   -  11 13 mph 1004.9mb 47f
12:40pm  -   -  11
mph
1005.2mb 47f
12:30pm  -   -  11
mph
1005.3mb 47f
12:20pm  -   -  11
mph
1005.8mb 47f
12:10pm  -   -  11 13 mph 1006mb 47f
12:00pm 0.7ft  -  11
mph
1006.3mb 47f
11:50am  -   -  9 11 mph 1006.3mb 47f
11:40am  -   -  9 11 mph 1006.7mb 47f
11:30am  -   -  9 11 mph 1007mb 47f
11:20am  -   -  11
mph
1007.5mb 48f
11:10am  -   -  11 13 mph 1007.8mb 47f
11:00am 0.7ft  -  9 11 mph 1008mb 47f
10:50am  -   -  9
mph
1008.3mb 47f
10:40am  -   -  9 11 mph 1008.6mb 47f
10:30am  -   -  9 11 mph 1008.7mb 47f
10:20am  -   -  9 11 mph 1009mb 47f
10:10am  -   -  9 13 mph 1009.3mb 47f
10:00am  -   -  7 11 mph 1009.5mb 46f
9:50am  -   -  7
mph
1009.5mb 45f
9:40am  -   -  7
mph
1009.3mb 46f
9:30am  -   -  7 11 mph 1009.6mb 45f
9:20am  -   -  4 7 mph 1009.6mb 45f
9:10am  -   -  4 7 mph 1009.8mb 45f
9:00am  -   -  4
mph
1009.7mb 45f
8:50am  -   -  2 4 mph 1009.7mb 45f
8:40am  -   -   -  2 mph 1009.9mb 44f
8:30am  -   -  2
mph
1010mb 44f
8:20am  -   -  2 4 mph 1010.2mb 44f
8:10am  -   -  4
mph
1010.2mb 44f
8:00am  -   -  4
mph
1010.2mb 44f
7:50am  -   -  4
mph
1010.3mb 44f
7:40am  -   -  4
mph
1010.3mb 44f
7:30am  -   -  4
mph
1010.2mb 44f
7:20am  -   -  4 7 mph 1010.1mb 45f
7:10am  -   -  4
mph
1010.3mb 45f
7:00am  -   -  2 4 mph 1010.4mb 45f
6:50am  -   -  4
mph
1010.6mb 45f
6:40am  -   -  4
mph
1010.6mb 45f
6:30am  -   -  2 4 mph 1010.6mb 44f
6:20am  -   -   -  2 mph 1010.7mb 44f
6:10am  -   -  2
mph
1010.7mb 43f
6:00am  -   -  4 7 mph 1010.8mb 43f
5:50am  -   -  4 7 mph 1011mb 43f
5:40am  -   -  4 7 mph 1011.5mb 44f
5:30am  -   -  4 7 mph 1011.8mb 45f
5:20am  -   -  2 4 mph 1011.9mb 45f
5:10am  -   -  4 7 mph 1011.9mb 45f
5:00am  -   -  7
mph
1012.1mb 44f
4:50am  -   -  4
mph
1012.1mb 45f
4:40am  -   -  2 4 mph 1012.4mb 45f
4:30am  -   -  2 4 mph 1012.6mb 44f
4:20am  -   -  2 4 mph 1012.7mb 44f
4:10am  -   -  2 4 mph 1012.8mb 44f
4:00am 0.3ft  -  2 4 mph 1012.9mb 44f
3:50am  -   -  2 4 mph 1013mb 44f
3:40am  -   -  4
mph
1013.3mb 44f
3:30am  -   -  4 7 mph 1013.4mb 44f
3:20am  -   -  7
mph
1013.6mb 44f
3:10am  -   -  4 9 mph 1013.8mb 43f
3:00am 0.3ft  -  7 9 mph 1014mb 43f
2:50am  -   -  2 4 mph 1014.4mb 43f
2:40am  -   -  4
mph
1014.8mb 43f
2:30am  -   -  2 4 mph 1015mb 43f
2:20am  -   -  2 4 mph 1015.1mb 43f
2:10am  -   -  2 4 mph 1015mb 43f
2:00am  -   -  4
mph
1015.3mb 43f
1:50am  -   -  4
mph
1015.4mb 43f
1:40am  -   -  4
mph
1015.4mb 43f
1:30am  -   -  4 7 mph 1015mb 43f
1:20am  -   -  7
mph
1014.9mb 43f
1:10am  -   -  7
mph
1015mb 43f
1:00am  -   -  4 7 mph 1015.2mb 43f
12:50am  -   -  4
mph
1015.5mb 43f
12:40am  -   -  2 4 mph 1015.7mb 43f
12:30am  -   -  2 4 mph 1015.8mb 43f
12:20am  -   -  4
mph
1015.7mb 43f
12:10am  -   -  4
mph
1016mb 43f
12:00am  -   -  4 7 mph 1016.2mb 43f
Tue 12/23 11:50pm  -   -  4 7 mph 1016.4mb 43f
11:40pm  -   -  4 7 mph 1016.5mb 43f
11:30pm  -   -  7
mph
1016.5mb 43f
11:20pm  -   -  4 7 mph 1016.7mb 43f
11:10pm  -   -  4 7 mph 1016.6mb 42f
11:00pm 0.3ft  -  4
mph
1016.5mb 42f
10:50pm  -   -  2 4 mph 1016.7mb 42f
10:40pm  -   -  2
mph
1016.8mb 42f
10:30pm  -   -  4
mph
1016.7mb 42f
10:20pm  -   -  4
mph
1016.6mb 42f
10:10pm  -   -  4
mph
1016.5mb 42f
10:00pm  -   -  2 4 mph 1016.6mb 42f
9:50pm  -   -  2 4 mph 1016.5mb 43f
9:40pm  -   -  2
mph
1016.5mb 43f
9:30pm  -   -   -  2 mph 1016.4mb 43f
9:20pm  -   -  2
mph
1016.5mb 43f
9:10pm  -   -   -  2 mph 1016.4mb 43f
9:00pm  -   -   -  2 mph 1016.5mb 43f
8:50pm  -   -  2
mph
1016.4mb 43f
8:40pm  -   -  4
mph
1016.6mb 43f
8:30pm  -   -  4 7 mph 1016.8mb 43f
8:20pm  -   -  4 7 mph 1016.9mb 43f
8:10pm  -   -  4
mph
1016.9mb 43f
8:00pm  -   -  4
mph
1016.7mb 43f
7:50pm  -   -  4
mph
1016.8mb 43f
7:40pm  -   -  4 7 mph 1016.8mb 43f
7:30pm  -   -  4 7 mph 1016.7mb 43f
7:20pm  -   -  4 7 mph 1016.3mb 43f
7:10pm  -   -  2 4 mph 1016.2mb 43f
7:00pm  -   -  2 4 mph 1016.5mb 43f
6:50pm  -   -  4
mph
1016.7mb 43f
6:40pm  -   -  4 7 mph 1016.7mb 43f
6:30pm  -   -  4 7 mph 1016.6mb 43f
6:20pm  -   -  4
mph
1016.6mb 43f
6:10pm  -   -  4
mph
1016.6mb 43f
6:00pm 0.3ft  -  4 7 mph 1016.2mb 43f
5:50pm  -   -  4
mph
1016.3mb 44f
5:40pm  -   -  4
mph
1016.2mb 44f
5:30pm  -   -  2 4 mph 1016.1mb 44f
5:20pm  -   -  2
mph
1016mb 44f
5:10pm  -   -  2
mph
1016.1mb 44f
5:00pm  -   -   -  2 mph 1016.3mb 44f
4:50pm  -   -   -  2 mph 1016.5mb 44f
4:40pm  -   -  2
mph
1016.6mb 44f
4:30pm  -   -  2
mph
1016.8mb 44f
4:20pm  -   -  2
mph
1016.6mb 44f
4:10pm  -   -  2
mph
1016.2mb 44f
4:00pm  -   -  2
mph
1016.1mb 44f
3:50pm  -   -   -  2 mph 1016.2mb 44f
3:40pm  -   -  4
mph
1016.4mb 44f
3:30pm  -   -  2 4 mph 1016.3mb 44f
3:20pm  -   -  2
mph
1016.1mb 44f
3:10pm  -   -  2
mph
1016.1mb 44f
3:00pm  -   -  2 4 mph 1016.2mb 44f
2:50pm  -   -  2
mph
1016.2mb 44f
2:40pm  -   -  2
mph
1016.2mb 44f
2:30pm  -   -  2
mph
1016mb 44f
2:20pm  -   -  2
mph
1015.9mb 43f
2:10pm  -   -  2
mph
1015.8mb 44f
2:00pm  -   -  2 4 mph 1016mb 44f
1:50pm  -   -  2 4 mph 1016.1mb 43f
1:40pm  -   -  4
mph
1016.3mb 43f
1:30pm  -   -  4
mph
1016.5mb 43f
1:20pm  -   -  2 4 mph 1016.2mb 43f
1:10pm  -   -  2
mph
1016.1mb 43f
1:00pm  -   -  2 4 mph 1016.3mb 43f
12:50pm  -   -  4
mph
1016.2mb 43f
12:40pm  -   -   -  2 mph 1015.9mb 43f
12:30pm  -   -  2
mph
1016.1mb 43f
12:20pm  -   -  2 4 mph 1016.3mb 43f
12:10pm  -   -  4
mph
1016.3mb 43f
12:00pm 0.3ft  -  4
mph
1016.2mb 43f
11:50am  -   -  2 4 mph 1016.2mb 43f
11:40am  -   -  2 4 mph 1016.4mb 43f
11:30am  -   -  4 7 mph 1016.8mb 43f
11:20am  -   -  7
mph
1017.1mb 42f
11:10am  -   -  7
mph
1017.1mb 43f
11:00am 0.3ft  -  7
mph
1017mb 43f
10:50am  -   -  7 9 mph 1017mb 43f
10:40am  -   -  7 9 mph 1017mb 42f
10:30am  -   -  7
mph
1016.9mb 42f
10:20am  -   -  7 9 mph 1016.9mb 42f
10:10am  -   -  7 9 mph 1016.7mb 42f
10:00am 0.3ft  -  7
mph
1016.6mb 42f
9:50am  -   -  7
mph
1016.6mb 42f
9:40am  -   -  7 9 mph 1016.6mb 42f
9:30am  -   -  7
mph
1016.5mb 41f
9:20am  -   -  7
mph
1016.6mb 41f
9:10am  -   -  7 9 mph 1016.6mb 41f
9:00am 0.3ft  -  9
mph
1016.3mb 41f
8:50am  -   -  9 11 mph 1016mb 41f
8:40am  -   -  9 11 mph 1016mb 41f
8:30am  -   -  9 11 mph 1016.1mb 41f
8:20am  -   -  9 11 mph 1016.1mb 41f
8:10am  -   -  9
mph
1016.3mb 41f
8:00am 0.7ft  -  7
mph
1016.2mb 41f
7:50am  -   -  7
mph
1016.3mb 41f
7:40am  -   -  7
mph
1016.4mb 41f
7:30am  -   -  7 9 mph 1016.3mb 41f
7:20am  -   -  7 9 mph 1016.3mb 41f
7:10am  -   -  7 9 mph 1016.6mb 41f
7:00am 0.7ft  -  7 9 mph 1016.5mb 41f
6:50am  -   -  7 9 mph 1016.3mb 41f
6:40am  -   -  7 9 mph 1016.1mb 41f
6:30am  -   -  7 9 mph 1016.2mb 41f
6:20am  -   -  7 9 mph 1016.2mb 41f
6:10am  -   -  7 9 mph 1016.1mb 41f
6:00am 1ft 2s 9
mph
1016.1mb 41f
5:50am  -   -  9 11 mph 1016mb 41f
5:40am  -   -  11
mph
1016mb 41f
5:30am  -   -  9 11 mph 1015.7mb 41f
5:20am  -   -  9 11 mph 1015.5mb 41f
5:10am  -   -  11 13 mph 1015.5mb 41f
5:00am 1ft 2s 11 13 mph 1015.4mb 41f
4:50am  -   -  13 16 mph 1015.2mb 41f
4:40am  -   -  13 16 mph 1015.2mb 41f
4:30am  -   -  13 18 mph 1015.1mb 41f
4:20am  -   -  13 18 mph 1015mb 41f
4:10am  -   -  11 13 mph 1014.6mb 41f
4:00am 0.7ft  -  11 13 mph 1014.7mb 41f
3:50am  -   -  9 13 mph 1014.8mb 41f
3:40am  -   -  9 11 mph 1014.8mb 41f
3:30am  -   -  11
mph
1014.8mb 41f
3:20am  -   -  9 11 mph 1014.8mb 41f
3:10am  -   -  9 11 mph 1014.8mb 41f
3:00am 1ft 2s 9 11 mph 1015.1mb 41f
2:50am  -   -  9 11 mph 1015.3mb 41f
2:40am  -   -  9 11 mph 1015.4mb 41f
2:30am  -   -  9
mph
1015.8mb 41f
2:20am  -   -  7 9 mph 1016mb 41f
2:10am  -   -  9 11 mph 1016.1mb 41f
2:00am 1.3ft 2s 11 13 mph 1016mb 41f
1:50am  -   -  13 16 mph 1016.2mb 41f
1:40am  -   -  18 20 mph 1016.5mb 41f
1:30am  -   -  18 20 mph 1016.1mb 40f
1:20am  -   -  16 18 mph 1016mb 40f
1:10am  -   -  13 16 mph 1016mb 41f
1:00am 1.3ft 2s 13 16 mph 1016mb 41f
12:50am  -   -  11 13 mph 1015.5mb 41f
12:40am  -   -  11 13 mph 1015.6mb 41f
12:30am  -   -  11 13 mph 1015.7mb 41f
12:20am  -   -  13 16 mph 1016.1mb 41f
12:10am  -   -  13 16 mph 1016.4mb 41f
12:00am 1.6ft 2s 13 16 mph 1016.6mb 41f
Mon 12/22 11:50pm  -   -  13 16 mph 1016.7mb 41f
11:40pm  -   -  13 16 mph 1016.7mb 40f
11:30pm  -   -  16 18 mph 1016.6mb 40f
11:20pm  -   -  16 18 mph 1016.9mb 40f
11:10pm  -   -  13 18 mph 1016.9mb 40f
11:00pm 1.3ft 2s 13 18 mph 1016.9mb 40f
10:50pm  -   -  13 16 mph 1017.1mb 40f
10:40pm  -   -  16 18 mph 1017.3mb 40f
10:30pm  -   -  13 16 mph 1017.5mb 40f
10:20pm  -   -  16 18 mph 1017.5mb 40f
10:10pm  -   -  16 18 mph 1017.6mb 40f
10:00pm 1.3ft 2s 16 18 mph 1017.8mb 40f
9:50pm  -   -  13 16 mph 1018mb 40f
9:40pm  -   -  16 18 mph 1018mb 40f
9:30pm  -   -  13 16 mph 1018.2mb 40f
9:20pm  -   -  16 18 mph 1018.4mb 39f
9:10pm  -   -  16 18 mph 1018.4mb 39f
9:00pm 1.6ft 2s 16 18 mph 1018.7mb 39f
8:50pm  -   -  16 20 mph 1019.1mb 39f
8:40pm  -   -  16 18 mph 1019.2mb 39f
8:30pm  -   -  18 20 mph 1019.3mb 39f
8:20pm  -   -  18 20 mph 1019.7mb 39f
8:10pm  -   -  18 20 mph 1019.8mb 39f
8:00pm 2ft 3s 16 18 mph 1019.8mb 39f
7:50pm  -   -  13 16 mph 1019.7mb 39f
7:40pm  -   -  16 18 mph 1019.6mb 39f
7:30pm  -   -  13 18 mph 1019.6mb 39f
7:20pm  -   -  16 18 mph 1019.5mb 38f
7:10pm  -   -  16 18 mph 1019.3mb 38f
7:00pm 2ft 3s 18 22 mph 1019mb 38f
6:50pm  -   -  18 22 mph 1019.1mb 38f
6:40pm  -   -  18 20 mph 1019.2mb 38f
6:30pm  -   -  18 22 mph 1019.3mb 38f
6:20pm  -   -  16 20 mph 1019.5mb 38f
6:10pm  -   -  16 18 mph 1019.3mb 38f
6:00pm 1.6ft 3s 16 20 mph 1019.2mb 38f
5:50pm  -   -  16 18 mph 1019.5mb 38f
5:40pm  -   -  16 18 mph 1019.4mb 38f
5:30pm  -   -  13 18 mph 1019.5mb 38f
5:20pm  -   -  13 16 mph 1019.7mb 38f
5:10pm  -   -  13 16 mph 1019.8mb 38f
5:00pm 1.6ft 3s 16 18 mph 1019.6mb 38f
4:50pm  -   -  13 18 mph 1019.7mb 37f
4:40pm  -   -  13 16 mph 1019.7mb 37f
4:30pm  -   -  13 16 mph 1019.6mb 37f
4:20pm  -   -  13 16 mph 1019.5mb 37f
4:10pm  -   -  13 16 mph 1019.7mb 37f
4:00pm 1.6ft 3s 13 18 mph 1019.6mb 37f
3:50pm  -   -  13 18 mph 1019.5mb 37f
3:40pm  -   -  16 18 mph 1019.2mb 37f
3:30pm  -   -  16 18 mph 1019.6mb 37f
3:20pm  -   -  13 18 mph 1019.9mb 36f
3:10pm  -   -  13 18 mph 1020mb 36f
3:00pm 1.3ft 3s 16 18 mph 1019.9mb 36f
2:50pm  -   -  16 18 mph 1020.4mb 36f
2:40pm  -   -  13 16 mph 1020.5mb 36f
2:30pm  -   -  13 16 mph 1020.6mb 36f
2:20pm  -   -  13 16 mph 1020.6mb 36f
2:10pm  -   -  13 16 mph 1020.7mb 36f
2:00pm 1.3ft 3s 13 16 mph 1020.9mb 36f
1:50pm  -   -  13 16 mph 1021mb 36f
1:40pm  -   -  13 18 mph 1021.3mb 36f
1:30pm  -   -  13 16 mph 1021.7mb 36f
1:20pm  -   -  16 18 mph 1021.6mb 36f
1:10pm  -   -  16 20 mph 1021.5mb 36f
1:00pm 1ft 2s 16 20 mph 1021.7mb 36f
12:50pm  -   -  13 16 mph 1022.1mb 36f
12:40pm  -   -  13
mph
1022.1mb 36f
12:30pm  -   -  11 13 mph 1022.4mb 36f
12:20pm  -   -  11 13 mph 1022.5mb 36f
12:10pm  -   -  11 13 mph 1022.7mb 36f
12:00pm 1ft 2s 11 13 mph 1022.8mb 36f
11:50am  -   -  11 13 mph 1023mb 36f
11:40am  -   -  11 13 mph 1023.3mb 36f
11:30am  -   -  11 13 mph 1023.4mb 36f
11:20am  -   -  11 13 mph 1023.5mb 36f
11:10am  -   -  11 13 mph 1023.8mb 36f
11:00am 1ft 2s 11 13 mph 1024mb 36f
10:50am  -   -  11 13 mph 1024.2mb 36f
10:40am  -   -  13 16 mph 1024.2mb 36f
10:30am  -   -  13 16 mph 1024.3mb 36f
10:20am  -   -  13 16 mph 1024.5mb 36f
10:10am  -   -  13 16 mph 1024.7mb 36f
10:00am 1ft 2s 11 13 mph 1025.1mb 35f
9:50am  -   -  11 13 mph 1025.1mb 35f
9:40am  -   -  11 13 mph 1025mb 35f
9:30am  -   -  11 13 mph 1024.8mb 35f
9:20am  -   -  11 13 mph 1024.8mb 35f
9:10am  -   -  11 13 mph 1024.7mb 35f
9:00am 1ft 2s 11 13 mph 1024.6mb 35f
8:50am  -   -  11
mph
1024.6mb 35f
8:40am  -   -  11 13 mph 1024.6mb 35f
8:30am  -   -  11
mph
1024.6mb 35f
8:20am  -   -  11 13 mph 1024.8mb 35f
8:10am  -   -  11
mph
1024.8mb 35f
8:00am 1ft 2s 11 13 mph 1024.7mb 35f
7:50am  -   -  13 16 mph 1024.4mb 35f
7:40am  -   -  13 16 mph 1024.3mb 35f
7:30am  -   -  13
mph
1024.4mb 35f
7:20am  -   -  11 13 mph 1024.6mb 35f
7:10am  -   -  11 13 mph 1024.8mb 35f
7:00am 1ft 2s 11 13 mph 1024.7mb 35f
6:50am  -   -  11 13 mph 1024.6mb 35f
6:40am  -   -  9 11 mph 1024.7mb 35f
6:30am  -   -  9 11 mph 1024.9mb 35f
6:20am  -   -  9 11 mph 1024.7mb 35f
6:10am  -   -  11 13 mph 1024.6mb 35f
6:00am 1.3ft 2s 11 13 mph 1024.4mb 35f
5:50am  -   -  11 13 mph 1024.5mb 35f
5:40am  -   -  11 13 mph 1024.5mb 35f
5:30am  -   -  13 16 mph 1024.5mb 35f
5:20am  -   -  13 16 mph 1024.3mb 35f
5:10am  -   -  13 18 mph 1024.2mb 35f
5:00am 1.3ft 2s 13 18 mph 1024.1mb 35f
4:50am  -   -  13 16 mph 1024.5mb 35f
4:40am  -   -  13 18 mph 1024.2mb 35f
4:30am  -   -  13 16 mph 1024.3mb 35f
4:20am  -   -  11 13 mph 1024.7mb 34f
4:10am  -   -  11 13 mph 1024.9mb 34f
4:00am 1ft 2s 11 13 mph 1024.9mb 34f
3:50am  -   -  11 13 mph 1024.8mb 34f
3:40am  -   -  11 13 mph 1025mb 35f
3:30am  -   -  11 13 mph 1025.3mb 35f
3:20am  -   -  9 11 mph 1025.5mb 35f
3:10am  -   -  11
mph
1025.5mb 35f
3:00am 1ft 2s 9 11 mph 1025.7mb 35f
2:50am  -   -  9 11 mph 1025.7mb 35f
2:40am  -   -  11 13 mph 1025.7mb 35f
2:30am  -   -  11 13 mph 1025.7mb 35f
2:20am  -   -  11 13 mph 1025.7mb 35f
2:10am  -   -  13
mph
1025.5mb 36f
2:00am 1ft 2s 11 16 mph 1025.6mb 35f
1:50am  -   -  11 13 mph 1025.7mb 35f
1:40am  -   -  11 13 mph 1025.5mb 35f
1:30am  -   -  9 11 mph 1025.6mb 36f
1:20am  -   -  9 11 mph 1025.6mb 36f
1:10am  -   -  11
mph
1025.7mb 36f